createdAt,value
2023-02-04T00:02:28.943Z,19.14
2023-02-04T00:07:34.067Z,17.32
2023-02-04T00:12:39.702Z,18.63
2023-02-04T00:17:43.123Z,17.44
2023-02-04T00:22:48.148Z,17.22
2023-02-04T00:27:53.852Z,17.20
2023-02-04T00:32:57.304Z,19.37
2023-02-04T00:38:02.073Z,42.00
2023-02-04T00:43:08.064Z,21.78
2023-02-04T00:48:13.671Z,18.74
2023-02-04T00:53:18.511Z,19.75
2023-02-04T00:58:24.579Z,20.89
2023-02-04T01:03:30.144Z,21.02
2023-02-04T01:08:34.904Z,26.26
2023-02-04T01:13:38.345Z,26.01
2023-02-04T01:18:44.422Z,20.59
2023-02-04T01:23:51.401Z,19.75
2023-02-04T01:28:54.918Z,18.65
2023-02-04T01:33:58.644Z,19.55
2023-02-04T01:39:03.552Z,19.40
2023-02-04T01:44:07.243Z,21.59
2023-02-04T01:49:12.306Z,21.19
2023-02-04T01:54:18.012Z,20.94
2023-02-04T01:59:21.395Z,21.25
2023-02-04T02:04:30.809Z,20.37
2023-02-04T02:09:38.974Z,20.26
2023-02-04T02:14:42.685Z,20.12
2023-02-04T02:19:46.238Z,19.97
2023-02-04T02:24:53.347Z,18.86
2023-02-04T02:29:58.927Z,25.47
2023-02-04T02:35:02.796Z,14.71
2023-02-04T02:40:08.461Z,13.24
2023-02-04T02:45:17.616Z,12.70
2023-02-04T02:50:22.675Z,12.33
2023-02-04T02:55:30.193Z,11.91
2023-02-04T03:00:35.027Z,11.26
2023-02-04T03:05:42.885Z,10.38
2023-02-04T03:10:51.855Z,10.03
2023-02-04T03:15:55.652Z,9.76
2023-02-04T03:21:00.100Z,9.49
2023-02-04T03:26:08.550Z,9.74
2023-02-04T03:31:14.478Z,9.75
2023-02-04T03:36:20.137Z,9.66
2023-02-04T03:41:25.013Z,10.38
2023-02-04T03:46:29.275Z,10.60
2023-02-04T03:51:33.085Z,10.01
2023-02-04T03:56:40.100Z,9.91
2023-02-04T04:01:43.505Z,10.18
2023-02-04T04:06:46.896Z,14.14
2023-02-04T04:11:51.651Z,10.29
2023-02-04T04:16:57.610Z,11.00
2023-02-04T04:22:03.266Z,12.32
2023-02-04T04:27:08.016Z,10.35
2023-02-04T04:32:13.691Z,9.46
2023-02-04T04:37:17.417Z,9.59
2023-02-04T04:42:22.145Z,9.59
2023-02-04T04:47:28.091Z,10.02
2023-02-04T04:52:31.528Z,9.62
2023-02-04T04:57:38.464Z,10.79
2023-02-04T05:02:42.016Z,11.44
2023-02-04T05:07:45.414Z,11.38
2023-02-04T05:12:50.127Z,11.80
2023-02-04T05:17:53.817Z,12.12
2023-02-04T05:22:57.389Z,17.32
2023-02-04T05:28:02.189Z,18.44
2023-02-04T05:33:05.693Z,14.64
2023-02-04T05:38:11.681Z,22.42
2023-02-04T05:43:16.531Z,16.34
2023-02-04T05:48:19.870Z,21.24
2023-02-04T05:53:24.845Z,22.97
2023-02-04T05:58:34.384Z,16.05
2023-02-04T06:03:37.821Z,17.73
2023-02-04T06:08:43.836Z,14.45
2023-02-04T06:13:50.826Z,14.04
2023-02-04T06:18:56.314Z,13.38
2023-02-04T06:23:59.723Z,15.34
2023-02-04T06:29:04.483Z,17.03
2023-02-04T06:34:10.216Z,15.86
2023-02-04T06:39:13.607Z,25.79
2023-02-04T06:44:20.497Z,16.50
2023-02-04T06:49:26.775Z,15.03
2023-02-04T06:54:32.427Z,15.11
2023-02-04T06:59:40.821Z,13.98
2023-02-04T07:04:45.592Z,14.68
2023-02-04T07:09:55.779Z,14.06
2023-02-04T07:15:00.589Z,26.20
2023-02-04T07:20:04.160Z,15.02
2023-02-04T07:25:07.927Z,14.49
2023-02-04T07:30:13.305Z,16.90
2023-02-04T07:35:17.706Z,22.30
2023-02-04T07:40:21.919Z,15.07
2023-02-04T07:45:26.778Z,13.04
2023-02-04T07:50:30.565Z,14.32
2023-02-04T07:55:34.504Z,14.98
2023-02-04T08:00:41.605Z,14.26
2023-02-04T08:05:44.981Z,13.80
2023-02-04T08:10:48.665Z,12.60
2023-02-04T08:15:53.558Z,12.28
2023-02-04T08:20:56.974Z,12.62
2023-02-04T08:26:00.987Z,12.15
2023-02-04T08:31:07.112Z,11.06
2023-02-04T08:36:10.829Z,12.97
2023-02-04T08:41:14.304Z,14.24
2023-02-04T08:46:19.170Z,12.31
2023-02-04T08:51:22.821Z,13.00
2023-02-04T08:56:28.670Z,11.92
2023-02-04T09:01:33.449Z,10.82
2023-02-04T09:06:36.895Z,18.90
2023-02-04T09:11:43.171Z,10.66
2023-02-04T09:16:50.457Z,9.92
2023-02-04T09:21:56.406Z,11.71
2023-02-04T09:27:01.979Z,11.39
2023-02-04T09:32:07.125Z,11.53
2023-02-04T09:37:10.575Z,12.47
2023-02-04T09:42:15.927Z,13.47
2023-02-04T09:47:23.531Z,11.41
2023-02-04T09:52:29.603Z,11.35
2023-02-04T09:57:33.059Z,10.10
2023-02-04T10:02:37.828Z,10.46
2023-02-04T10:07:41.756Z,10.72
2023-02-04T10:12:45.689Z,10.96
2023-02-04T10:17:53.156Z,10.53
2023-02-04T10:22:57.430Z,10.67
2023-02-04T10:28:01.494Z,11.12
2023-02-04T10:33:15.671Z,11.23
2023-02-04T10:38:19.224Z,9.19
2023-02-04T10:43:25.764Z,10.28
2023-02-04T10:48:31.581Z,11.22
2023-02-04T10:53:52.435Z,11.08
2023-02-04T10:58:55.895Z,10.97
2023-02-04T11:04:00.740Z,13.23
2023-02-04T11:36:26.110Z,13.78
2023-02-04T11:41:31.533Z,10.92
2023-02-04T11:46:34.962Z,16.16
2023-02-04T11:51:44.819Z,17.65
2023-02-04T11:56:48.296Z,11.37
2023-02-04T12:01:51.746Z,12.53
2023-02-04T12:07:00.655Z,11.27
2023-02-04T12:12:06.649Z,12.85
2023-02-04T12:17:17.817Z,14.51
2023-02-04T12:22:24.669Z,13.74
2023-02-04T12:27:27.995Z,10.83
2023-02-04T12:32:33.832Z,12.92
2023-02-04T12:37:38.562Z,9.72
2023-02-04T12:42:44.496Z,10.29
2023-02-04T12:47:48.231Z,10.48
2023-02-04T12:52:54.075Z,8.47
2023-02-04T12:58:00.007Z,9.29
2023-02-04T13:03:03.422Z,12.86
2023-02-04T13:08:10.296Z,8.98
2023-02-04T13:13:13.797Z,8.59
2023-02-04T13:18:18.421Z,8.24
2023-02-04T13:23:23.225Z,6.20
2023-02-04T13:28:26.691Z,6.81
2023-02-04T13:33:34.793Z,11.56
2023-02-04T13:38:39.706Z,7.49
2023-02-04T13:43:45.297Z,8.14
2023-02-04T13:48:51.505Z,7.37
2023-02-04T13:53:56.439Z,7.17
2023-02-04T13:59:02.652Z,9.82
2023-02-04T14:04:06.146Z,7.27
2023-02-04T14:09:12.283Z,7.43
2023-02-04T14:14:18.429Z,9.08
2023-02-04T14:19:21.967Z,8.90
2023-02-04T14:24:26.906Z,7.74
2023-02-04T14:29:30.349Z,7.04
2023-02-04T14:34:36.049Z,6.50
2023-02-04T14:39:45.465Z,11.58
2023-02-04T14:44:48.907Z,9.44
2023-02-04T14:49:54.770Z,9.84
2023-02-04T14:55:02.208Z,12.63
2023-02-04T15:00:06.864Z,13.04
2023-02-04T15:05:11.203Z,11.91
2023-02-04T15:10:16.030Z,13.51
2023-02-04T15:15:19.663Z,13.54
2023-02-04T15:20:25.804Z,14.45
2023-02-04T15:25:33.011Z,15.19
2023-02-04T15:30:39.524Z,13.57
2023-02-04T15:35:43.101Z,14.03
2023-02-04T15:40:50.133Z,13.49
2023-02-04T15:45:53.540Z,13.57
2023-02-04T15:50:57.210Z,14.01
2023-02-04T15:56:02.151Z,13.29
2023-02-04T16:01:08.100Z,13.46
2023-02-04T16:06:13.938Z,15.16
2023-02-04T16:11:18.677Z,16.18
2023-02-04T16:16:22.521Z,14.52
2023-02-04T16:21:26.065Z,16.16
2023-02-04T16:26:33.489Z,16.84
2023-02-04T16:31:37.193Z,16.42
2023-02-04T16:36:45.428Z,16.84
2023-02-04T16:41:50.284Z,16.81
2023-02-04T16:46:56.166Z,19.70
2023-02-04T16:52:04.486Z,18.02
2023-02-04T16:57:09.384Z,17.79
2023-02-04T17:02:12.795Z,19.90
2023-02-04T17:07:16.354Z,17.27
2023-02-04T17:12:21.569Z,17.16
2023-02-04T17:17:25.106Z,23.44
2023-02-04T17:22:28.571Z,21.76
2023-02-04T17:27:35.466Z,21.02
2023-02-04T17:32:41.303Z,22.14
2023-02-04T17:37:44.997Z,23.05
2023-02-04T17:42:51.864Z,21.24
2023-02-04T17:47:55.344Z,26.02
2023-02-04T17:52:58.788Z,23.79
2023-02-04T17:58:08.959Z,22.29
2023-02-04T18:03:13.769Z,22.88
2023-02-04T18:08:20.996Z,20.14
2023-02-04T18:13:26.751Z,20.91
2023-02-04T18:18:33.058Z,20.68
2023-02-04T18:23:41.515Z,23.08
2023-02-04T18:28:49.740Z,22.30
2023-02-04T18:33:53.268Z,20.71
2023-02-04T18:38:56.758Z,20.27
2023-02-04T18:44:03.468Z,20.16
2023-02-04T18:49:20.283Z,20.36
2023-02-04T18:54:28.937Z,21.20
2023-02-04T18:59:33.680Z,21.22
2023-02-04T19:04:37.507Z,22.94
2023-02-04T19:09:40.938Z,21.54
2023-02-04T19:14:45.754Z,20.87
2023-02-04T19:19:55.535Z,20.80
2023-02-04T19:25:22.176Z,20.78
2023-02-04T19:30:43.329Z,21.81
2023-02-04T19:35:49.054Z,21.29
2023-02-04T19:40:54.828Z,22.35
2023-02-04T19:46:03.407Z,23.62
2023-02-04T19:51:19.220Z,24.47
2023-02-04T19:56:35.113Z,23.67
2023-02-04T20:01:39.997Z,23.79
2023-02-04T20:06:45.599Z,24.67
2023-02-04T20:12:00.567Z,25.37
2023-02-04T20:17:16.003Z,25.59
2023-02-04T20:22:35.093Z,26.47
2023-02-04T20:27:39.943Z,25.22
2023-02-04T20:32:48.646Z,26.42
2023-02-04T20:37:54.321Z,26.86
2023-02-04T20:42:58.678Z,26.81
2023-02-04T20:48:20.057Z,26.96
2023-02-04T20:53:26.014Z,26.54
2023-02-04T20:58:30.290Z,27.22
2023-02-04T21:03:36.152Z,28.13
2023-02-04T21:08:45.084Z,27.25
2023-02-04T21:13:48.497Z,26.18
2023-02-04T21:18:54.890Z,26.15
2023-02-04T21:23:59.635Z,26.26
2023-02-04T21:29:05.783Z,26.00
2023-02-04T21:34:09.235Z,26.89
2023-02-04T21:39:16.259Z,25.72
2023-02-04T21:44:25.424Z,25.62
2023-02-04T21:49:31.264Z,26.38
2023-02-04T21:54:36.304Z,24.79
2023-02-04T21:59:39.770Z,27.95
2023-02-04T22:04:43.255Z,24.75
2023-02-04T22:09:50.124Z,23.59
2023-02-04T22:15:11.039Z,22.50
2023-02-04T22:20:17.384Z,22.72
2023-02-04T22:25:22.994Z,21.82
2023-02-04T22:30:26.619Z,21.58
2023-02-04T22:35:35.339Z,21.01
2023-02-04T22:40:42.762Z,21.98
2023-02-04T22:45:46.309Z,21.34
2023-02-04T22:50:49.950Z,21.96
2023-02-04T22:55:54.776Z,22.27
2023-02-04T23:00:58.375Z,18.40
2023-02-04T23:06:02.078Z,18.17
2023-02-04T23:11:09.473Z,19.01
2023-02-04T23:16:15.025Z,16.58
2023-02-04T23:21:20.359Z,15.92
2023-02-04T23:26:25.180Z,16.01
2023-02-04T23:31:33.544Z,15.66
2023-02-04T23:36:37.591Z,16.04
2023-02-04T23:41:42.338Z,15.45
2023-02-04T23:46:45.746Z,15.19
2023-02-04T23:51:49.146Z,14.69
2023-02-04T23:56:53.924Z,14.35
